Time;durP1;ratioP1;P1;durP2;ratioP2;P2;SDS_P1;SDS_P2;PMS_P1;PMS_P2;Temp;Humidity;BMP_temperature;BMP_pressure;BME280_temperature;BME280_humidity;BME280_pressure;Samples;Min_cycle;Max_cycle;Signal;HPM_P1;HPM_P2
2023/04/01 00:02:35;;;;;;;3.47;1.17;;;;;;;6.76;100.00;94815.94;10409223;28;20653;-74
2023/04/01 00:07:37;;;;;;;3.60;1.17;;;;;;;6.68;100.00;94818.66;10391321;28;21026;-73
2023/04/01 00:12:38;;;;;;;2.63;1.30;;;;;;;6.66;100.00;94822.41;10409509;28;20504;-74
2023/04/01 00:17:38;;;;;;;6.23;1.27;;;;;;;6.59;100.00;94817.91;10408493;28;20234;-74
2023/04/01 00:22:39;;;;;;;4.27;1.30;;;;;;;6.58;100.00;94831.09;10408840;28;20237;-74
2023/04/01 00:27:39;;;;;;;2.27;1.40;;;;;;;6.60;100.00;94823.94;10408502;28;20192;-74
2023/04/01 00:32:40;;;;;;;5.17;1.30;;;;;;;6.67;100.00;94826.63;10390318;28;20256;-74
2023/04/01 00:37:40;;;;;;;6.77;1.40;;;;;;;6.59;100.00;94822.31;10408158;28;20232;-74
2023/04/01 00:42:40;;;;;;;2.80;1.20;;;;;;;6.61;100.00;94828.16;10408474;28;20618;-74
2023/04/01 00:47:41;;;;;;;4.83;1.80;;;;;;;6.59;100.00;94830.94;10407880;28;20628;-74
2023/04/01 00:52:42;;;;;;;7.07;1.23;;;;;;;6.58;100.00;94828.50;10390719;28;20609;-74
2023/04/01 00:57:43;;;;;;;3.20;1.70;;;;;;;6.58;100.00;94828.50;10389728;28;20200;-74
2023/04/01 01:02:45;;;;;;;4.20;1.53;;;;;;;6.58;100.00;94818.09;10393645;28;20188;-74
2023/04/01 01:08:01;;;;;;;5.90;1.30;;;;;;;6.57;100.00;94832.09;10398159;28;20192;-74
2023/04/01 01:13:07;;;;;;;4.30;1.20;;;;;;;6.58;100.00;94813.72;10381940;28;20339;-74
2023/04/01 01:18:23;;;;;;;4.47;1.40;;;;;;;6.55;100.00;94810.66;10415363;28;20197;-74
2023/04/01 01:23:51;;;;;;;8.43;1.70;;;;;;;6.46;100.00;94811.72;10415966;28;20181;-74
2023/04/01 01:29:02;;;;;;;1.20;1.00;;;;;;;6.43;100.00;94805.91;10414461;28;20184;-75
2023/04/01 01:34:24;;;;;;;2.13;1.40;;;;;;;6.58;100.00;94800.72;10415471;28;20251;-75
2023/04/01 01:39:27;;;;;;;5.03;1.53;;;;;;;6.44;100.00;94801.50;10414104;28;20244;-75
2023/04/01 01:44:29;;;;;;;2.30;1.57;;;;;;;6.44;100.00;94791.09;10380964;28;20239;-75
2023/04/01 01:49:32;;;;;;;4.50;1.57;;;;;;;6.43;100.00;94800.69;10379997;28;20216;-74
2023/04/01 01:54:32;;;;;;;6.53;1.63;;;;;;;6.52;100.00;94805.81;10380607;28;20303;-74
2023/04/01 01:59:35;;;;;;;7.03;2.07;;;;;;;6.45;100.00;94799.69;10395926;28;20189;-74
2023/04/01 02:04:40;;;;;;;3.63;1.40;;;;;;;6.48;100.00;94800.16;10379928;28;20184;-75
2023/04/01 02:09:41;;;;;;;2.87;1.27;;;;;;;6.47;100.00;94806.34;10374836;28;20199;-74
2023/04/01 02:14:47;;;;;;;4.53;1.43;;;;;;;6.58;100.00;94794.69;10378779;28;20223;-74
2023/04/01 02:19:52;;;;;;;6.07;1.40;;;;;;;6.62;100.00;94802.97;10395317;28;20189;-74
2023/04/01 02:24:57;;;;;;;3.03;1.40;;;;;;;6.67;100.00;94796.22;10395763;28;20602;-74
2023/04/01 02:29:58;;;;;;;6.43;1.40;;;;;;;6.74;100.00;94796.31;10378247;28;20191;-75
2023/04/01 02:34:59;;;;;;;4.00;1.60;;;;;;;6.71;100.00;94804.50;10395101;28;20591;-74
2023/04/01 02:40:02;;;;;;;7.47;1.87;;;;;;;6.65;100.00;94805.19;10394863;28;20251;-74
2023/04/01 02:45:03;;;;;;;4.00;1.40;;;;;;;6.74;100.00;94810.13;10377960;28;20230;-74
2023/04/01 02:50:05;;;;;;;4.77;1.40;;;;;;;6.59;100.00;94814.53;10394794;28;20197;-74
2023/04/01 02:55:06;;;;;;;6.57;1.73;;;;;;;6.61;100.00;94812.53;10393851;28;20231;-74
2023/04/01 03:00:10;;;;;;;5.63;1.80;;;;;;;6.60;100.00;94816.16;10392666;28;20551;-74
2023/04/01 03:05:12;;;;;;;7.90;1.67;;;;;;;6.68;100.00;94821.25;10434109;28;20609;-73
2023/04/01 03:10:13;;;;;;;5.30;1.70;;;;;;;6.63;100.00;94810.59;10426471;28;20203;-74
2023/04/01 03:15:14;;;;;;;5.70;2.33;;;;;;;6.58;100.00;94815.50;10409446;28;20337;-73
2023/04/01 03:20:14;;;;;;;2.77;1.50;;;;;;;6.57;100.00;94817.31;10426800;28;20234;-74
2023/04/01 03:25:15;;;;;;;4.60;1.50;;;;;;;6.57;100.00;94814.69;10444381;28;20192;-74
2023/04/01 03:30:15;;;;;;;6.23;1.40;;;;;;;6.68;100.00;94810.06;10444465;28;20210;-74
2023/04/01 03:35:23;;;;;;;6.40;1.70;;;;;;;6.75;100.00;94816.13;10426664;28;20252;-74
2023/04/01 03:40:26;;;;;;;4.83;1.53;;;;;;;6.73;100.00;94811.09;10425153;28;20701;-74
2023/04/01 03:45:27;;;;;;;2.67;1.13;;;;;;;6.78;100.00;94819.19;10426391;28;20191;-74
2023/04/01 03:50:27;;;;;;;4.93;1.37;;;;;;;6.74;100.00;94817.94;10425982;28;20562;-74
2023/04/01 03:55:27;;;;;;;5.63;1.60;;;;;;;6.76;100.00;94815.94;10426359;28;20349;-74
2023/04/01 04:00:29;;;;;;;6.60;1.73;;;;;;;6.85;100.00;94826.28;10443684;28;20314;-73
2023/04/01 04:05:30;;;;;;;2.93;1.23;;;;;;;6.84;100.00;94816.84;10432474;28;20212;-74
2023/04/01 04:10:31;;;;;;;5.43;1.20;;;;;;;6.83;100.00;94829.06;10432351;28;20194;-74
2023/04/01 04:15:31;;;;;;;5.73;1.10;;;;;;;6.85;100.00;94826.28;10431872;28;20222;-74
2023/04/01 04:20:32;;;;;;;2.33;0.90;;;;;;;6.86;100.00;94841.72;10432503;28;20196;-74
2023/04/01 04:25:32;;;;;;;2.93;1.20;;;;;;;6.79;100.00;94841.63;10432238;28;20195;-74
2023/04/01 04:30:33;;;;;;;1.27;0.87;;;;;;;6.79;100.00;94843.41;10432318;28;20724;-75
2023/04/01 04:35:33;;;;;;;3.37;1.73;;;;;;;6.68;100.00;94857.69;10433929;28;21020;-74
2023/04/01 04:40:36;;;;;;;4.37;1.27;;;;;;;6.62;100.00;94863.59;10432224;28;20436;-75
2023/04/01 04:45:37;;;;;;;4.93;1.20;;;;;;;6.60;100.00;94871.59;10450907;28;20211;-75
2023/04/01 04:50:40;;;;;;;4.43;1.10;;;;;;;6.56;100.00;94861.72;10450148;28;20183;-75
2023/04/01 04:55:44;;;;;;;3.30;1.10;;;;;;;6.46;100.00;94867.16;10450600;28;20204;-75
2023/04/01 05:01:10;;;;;;;2.40;1.20;;;;;;;6.50;100.00;94863.22;10432630;28;20184;-75
2023/04/01 05:06:13;;;;;;;3.57;2.60;;;;;;;6.54;100.00;94866.25;10432572;28;20664;-75
2023/04/01 05:11:16;;;;;;;6.50;2.03;;;;;;;6.64;100.00;94874.63;10450802;28;20188;-75
2023/04/01 05:16:18;;;;;;;4.73;1.13;;;;;;;6.57;100.00;94874.53;10448624;28;20226;-75
2023/04/01 05:21:19;;;;;;;2.93;1.23;;;;;;;6.62;100.00;94884.41;10430579;28;20567;-75
2023/04/01 05:26:20;;;;;;;3.57;1.10;;;;;;;6.62;100.00;94888.81;10444013;28;20176;-75
2023/04/01 05:31:20;;;;;;;3.67;1.13;;;;;;;6.64;100.00;94885.03;10432106;28;20184;-75
2023/04/01 05:36:23;;;;;;;7.80;1.10;;;;;;;6.57;100.00;94886.72;10431952;28;20349;-75
2023/04/01 05:41:24;;;;;;;3.90;1.00;;;;;;;6.55;100.00;94891.28;10430523;28;20212;-75
2023/04/01 05:46:24;;;;;;;4.17;1.60;;;;;;;6.52;100.00;94896.84;10450840;28;20184;-75
2023/04/01 05:51:31;;;;;;;2.47;0.97;;;;;;;6.55;100.00;94899.91;10422125;28;20569;-75
2023/04/01 05:56:31;;;;;;;3.17;1.30;;;;;;;6.60;100.00;94899.41;10398365;28;20208;-76
2023/04/01 06:01:33;;;;;;;5.93;2.03;;;;;;;6.54;100.00;94890.50;10397985;28;20188;-76
2023/04/01 06:06:34;;;;;;;6.73;4.83;;;;;;;6.62;100.00;94891.41;10397658;28;20184;-76
2023/04/01 06:12:19;;;;;;;5.00;3.73;;;;;;;6.77;100.00;94900.06;10381725;28;20243;-75
2023/04/01 06:17:42;;;;;;;2.07;1.10;;;;;;;6.87;100.00;94905.00;10397623;28;20209;-75
2023/04/01 06:23:09;;;;;;;7.27;3.37;;;;;;;7.02;100.00;94900.59;10396695;28;20243;-74
2023/04/01 06:28:34;;;;;;;7.20;1.30;;;;;;;7.00;100.00;94901.75;10380919;28;20230;-74
2023/04/01 06:33:49;;;;;;;5.07;1.50;;;;;;;7.02;100.00;94908.41;10396435;28;20213;-74
2023/04/01 06:39:05;;;;;;;4.40;1.20;;;;;;;7.16;100.00;94912.00;10402799;28;20236;-73
2023/04/01 06:44:30;;;;;;;4.87;1.00;;;;;;;7.01;100.00;94922.41;10414815;28;20200;-74
2023/04/01 06:50:11;;;;;;;1.93;0.83;;;;;;;7.10;100.00;94926.53;10414255;28;20196;-75
2023/04/01 06:55:53;;;;;;;7.87;1.23;;;;;;;7.14;100.00;94921.81;10304683;28;20228;-75
2023/04/01 07:01:22;;;;;;;3.73;1.20;;;;;;;7.14;100.00;94921.81;10389740;28;20273;-75
2023/04/01 07:06:32;;;;;;;2.17;1.10;;;;;;;7.27;100.00;94932.41;10452771;28;20192;-76
2023/04/01 07:11:35;;;;;;;4.27;1.43;;;;;;;7.24;100.00;94937.16;10434665;28;20552;-76
2023/04/01 07:16:59;;;;;;;2.53;0.83;;;;;;;7.38;100.00;94944.16;10451863;28;20306;-76
2023/04/01 07:22:09;;;;;;;3.33;1.40;;;;;;;7.45;100.00;94939.84;10435007;28;20195;-76
2023/04/01 07:27:32;;;;;;;2.67;1.30;;;;;;;7.37;100.00;94945.16;10437555;28;20204;-75
2023/04/01 07:32:40;;;;;;;5.03;1.30;;;;;;;7.38;100.00;94933.75;10434255;28;20200;-75
2023/04/01 07:38:04;;;;;;;7.70;2.07;;;;;;;7.55;100.00;94949.16;10433423;28;20236;-75
2023/04/01 07:43:17;;;;;;;2.57;1.60;;;;;;;7.50;100.00;94950.53;10430947;28;20199;-76
2023/04/01 07:48:32;;;;;;;2.77;1.20;;;;;;;7.64;100.00;94961.94;10433289;28;20204;-75
2023/04/01 07:54:11;;;;;;;2.57;1.13;;;;;;;7.33;100.00;94969.94;10396066;28;20266;-75
2023/04/01 07:59:29;;;;;;;2.37;0.90;;;;;;;7.35;100.00;94964.53;10352868;28;20850;-75
2023/04/01 08:05:18;;;;;;;2.30;1.10;;;;;;;7.61;100.00;94969.28;10376564;28;20180;-75
2023/04/01 08:10:28;;;;;;;3.27;1.00;;;;;;;7.93;100.00;94973.31;10387796;28;20196;-76
2023/04/01 08:16:32;;;;;;;4.23;1.20;;;;;;;7.79;100.00;94982.75;10439510;28;20243;-75
2023/04/01 08:21:52;;;;;;;3.00;1.20;;;;;;;7.37;100.00;94988.63;10397741;28;20211;-75
2023/04/01 08:27:00;;;;;;;3.03;1.20;;;;;;;7.67;100.00;94982.41;10395576;28;20206;-75
2023/04/01 08:32:10;;;;;;;2.97;1.10;;;;;;;7.79;100.00;94994.97;10399419;28;20189;-75
2023/04/01 08:37:17;;;;;;;2.30;1.10;;;;;;;7.76;100.00;94982.31;10404581;28;20224;-75
2023/04/01 08:42:38;;;;;;;3.03;1.10;;;;;;;7.61;100.00;94995.34;10402303;28;20323;-74
2023/04/01 08:48:08;;;;;;;2.40;1.10;;;;;;;7.27;100.00;94994.09;10430621;28;20199;-76
2023/04/01 08:53:18;;;;;;;4.23;1.30;;;;;;;7.38;100.00;94993.66;10431338;28;20212;-76
2023/04/01 08:58:57;;;;;;;1.40;1.30;;;;;;;7.60;100.00;94994.53;10448529;28;20184;-76
2023/04/01 09:04:07;;;;;;;3.27;1.37;;;;;;;7.39;100.00;94989.25;10447386;28;20579;-76
2023/04/01 09:09:47;;;;;;;2.83;1.03;;;;;;;7.50;100.00;94994.84;10429396;28;20967;-76
2023/04/01 09:15:00;;;;;;;5.03;1.17;;;;;;;7.61;100.00;94990.13;10409564;28;20263;-76
2023/04/01 09:26:56;;;;;;;2.40;1.07;;;;;;;7.72;100.00;94999.28;10456168;28;20172;-75
2023/04/01 09:32:05;;;;;;;7.47;3.17;;;;;;;7.96;100.00;95003.41;10438514;28;20188;-75
2023/04/01 09:37:25;;;;;;;2.97;1.10;;;;;;;8.12;100.00;95005.00;10437903;28;20235;-75
2023/04/01 09:43:01;;;;;;;5.43;2.00;;;;;;;8.06;100.00;95005.75;10454211;28;20231;-76
2023/04/01 09:48:08;;;;;;;7.23;1.30;;;;;;;8.04;100.00;95014.56;10409374;28;20200;-77
2023/04/01 09:53:43;;;;;;;2.93;1.60;;;;;;;8.44;100.00;95013.38;10418745;28;20239;-76
2023/04/01 09:59:21;;;;;;;1.63;0.93;;;;;;;8.13;100.00;95004.84;10428106;28;20200;-76
2023/04/01 10:05:07;;;;;;;4.23;1.13;;;;;;;8.71;100.00;95004.03;10454473;28;20192;-77
2023/04/01 10:10:33;;;;;;;3.07;1.20;;;;;;;8.55;100.00;95005.88;10420647;28;20728;-76
2023/04/01 10:15:55;;;;;;;3.10;1.00;;;;;;;8.37;100.00;95005.47;10433456;28;20232;-77
2023/04/01 10:21:24;;;;;;;3.47;1.00;;;;;;;8.20;100.00;95017.94;10419561;28;20188;-77
2023/04/01 10:26:41;;;;;;;1.83;1.00;;;;;;;8.33;100.00;95025.91;10419221;28;20331;-77
2023/04/01 10:32:24;;;;;;;2.83;1.10;;;;;;;8.18;100.00;95015.50;10414055;28;20719;-78
2023/04/01 10:38:03;;;;;;;1.50;1.10;;;;;;;7.93;100.00;95019.41;10419045;28;20220;-78
2023/04/01 10:43:23;;;;;;;3.37;1.13;;;;;;;8.15;100.00;95015.88;10396533;28;20208;-76
2023/04/01 10:48:49;;;;;;;1.90;1.10;;;;;;;9.16;100.00;95011.63;10431881;28;20316;-77
2023/04/01 10:54:07;;;;;;;1.10;0.90;;;;;;;8.83;100.00;94999.91;10435164;28;20227;-75
2023/04/01 10:59:59;;;;;;;2.40;1.00;;;;;;;9.55;100.00;94987.56;10428963;28;20283;-76
2023/04/01 11:05:29;;;;;;;2.20;1.02;;;;;;;9.71;100.00;94972.53;10436380;28;20184;-76
2023/04/01 11:11:01;;;;;;;4.17;0.93;;;;;;;9.21;100.00;94970.88;10434429;28;20211;-76
2023/04/01 11:16:39;;;;;;;4.97;1.17;;;;;;;9.34;100.00;94979.78;10435048;28;20216;-76
2023/04/01 11:22:10;;;;;;;3.30;1.13;;;;;;;9.12;100.00;94979.84;10434299;28;20676;-75
2023/04/01 11:27:26;;;;;;;2.93;2.30;;;;;;;9.04;100.00;94969.56;10433884;28;20184;-76
2023/04/01 11:32:49;;;;;;;1.27;0.90;;;;;;;10.95;100.00;94929.56;10434474;28;20192;-76
2023/04/01 11:38:21;;;;;;;2.80;1.90;;;;;;;11.93;97.09;94922.69;10432957;28;20232;-76
2023/04/01 11:43:29;;;;;;;0.70;0.60;;;;;;;11.81;88.69;94891.00;10451904;28;20262;-76
2023/04/01 11:48:57;;;;;;;0.70;0.70;;;;;;;10.74;88.41;94898.34;10437560;28;20188;-76
2023/04/01 11:54:23;;;;;;;1.50;1.40;;;;;;;10.71;92.27;94930.97;10434863;28;20593;-76
2023/04/01 11:59:45;;;;;;;0.70;0.70;;;;;;;10.31;92.12;94923.84;10413210;28;20224;-75
2023/04/01 12:05:11;;;;;;;2.40;0.90;;;;;;;9.76;89.88;94910.81;10410254;28;20189;-75
2023/04/01 12:10:55;;;;;;;1.10;1.00;;;;;;;10.05;92.34;94936.88;10398442;28;20216;-75
2023/04/01 12:16:03;;;;;;;2.93;1.10;;;;;;;9.93;93.67;94950.50;10449532;28;20243;-76
2023/04/01 12:21:13;;;;;;;1.47;1.17;;;;;;;9.97;92.20;94940.47;10448698;28;20192;-75
2023/04/01 12:26:52;;;;;;;1.77;1.17;;;;;;;10.26;88.65;94910.56;10450540;28;20215;-74
2023/04/01 12:32:09;;;;;;;0.70;0.70;;;;;;;10.52;88.33;94914.22;10448450;28;20233;-76
2023/04/01 12:37:21;;;;;;;1.23;0.60;;;;;;;11.15;85.81;94905.94;10431715;28;20267;-77
2023/04/01 12:42:40;;;;;;;1.00;0.60;;;;;;;10.92;82.14;94884.59;10431411;28;20293;-76
2023/04/01 12:48:06;;;;;;;1.10;1.00;;;;;;;11.32;82.25;94893.19;10431558;28;20184;-76
2023/04/01 12:53:33;;;;;;;0.70;0.70;;;;;;;11.81;78.21;94854.28;10449216;28;20242;-77
2023/04/01 12:58:52;;;;;;;0.70;0.65;;;;;;;11.29;81.84;94914.59;10437634;28;20532;-76
2023/04/01 13:04:04;;;;;;;1.67;0.63;;;;;;;11.99;78.10;94879.84;10456880;28;20278;-76
2023/04/01 13:09:24;;;;;;;1.17;0.75;;;;;;;11.33;79.92;94910.56;10456173;28;20272;-76
2023/04/01 13:14:32;;;;;;;1.05;0.65;;;;;;;11.70;78.96;94902.97;10439876;28;20215;-76
2023/04/01 13:19:40;;;;;;;1.02;1.02;;;;;;;12.34;78.11;94903.03;10455633;28;20543;-76
2023/04/01 13:25:05;;;;;;;0.60;0.60;;;;;;;13.66;73.35;94856.53;10456165;28;20214;-76
2023/04/01 13:30:25;;;;;;;1.42;0.73;;;;;;;14.24;71.19;94845.44;10427297;28;20550;-76
2023/04/01 13:35:41;;;;;;;0.70;0.70;;;;;;;13.45;72.67;94877.03;10456548;28;20695;-76
2023/04/01 13:41:01;;;;;;;0.70;0.70;;;;;;;13.54;73.82;94896.75;10437590;28;20231;-76
2023/04/01 13:46:01;;;;;;;2.13;0.73;;;;;;;12.97;73.46;94878.50;10455662;28;20207;-76
2023/04/01 13:51:11;;;;;;;1.02;1.02;;;;;;;11.75;78.17;94939.06;10437248;28;20295;-76
2023/04/01 13:56:34;;;;;;;1.88;0.80;;;;;;;11.33;78.88;94942.00;10454876;28;20306;-75
2023/04/01 14:01:46;;;;;;;1.85;1.23;;;;;;;11.66;79.84;94945.53;10437767;28;20242;-76
2023/04/01 14:06:59;;;;;;;0.75;0.75;;;;;;;10.71;81.84;94955.34;10455085;28;20188;-76
2023/04/01 14:12:30;;;;;;;1.17;0.80;;;;;;;10.97;80.13;94938.00;10455043;28;20188;-76
2023/04/01 14:17:44;;;;;;;1.80;0.70;;;;;;;11.87;81.10;94960.22;10454529;28;20662;-76
2023/04/01 14:23:05;;;;;;;0.68;0.68;;;;;;;11.70;78.24;94923.94;10453493;28;20973;-75
2023/04/01 14:28:17;;;;;;;4.15;0.80;;;;;;;13.09;76.77;94931.16;10454219;28;20227;-76
2023/04/01 14:33:26;;;;;;;0.80;0.73;;;;;;;13.20;71.61;94874.44;10454143;28;20307;-76
2023/04/01 14:38:52;;;;;;;2.15;0.70;;;;;;;12.97;71.67;94881.13;10452434;28;20255;-76
2023/04/01 14:44:12;;;;;;;1.23;0.93;;;;;;;11.94;76.61;94953.13;10452681;28;20223;-76
2023/04/01 14:49:34;;;;;;;0.93;0.60;;;;;;;10.92;81.18;95003.31;10449974;28;20195;-75
2023/04/01 14:54:37;;;;;;;2.55;0.95;;;;;;;10.37;92.22;95071.50;10437232;28;20228;-75
2023/04/01 14:59:46;;;;;;;1.08;0.85;;;;;;;9.62;100.00;95073.88;10436967;28;20192;-76
2023/04/01 15:05:15;;;;;;;3.23;1.37;;;;;;;9.03;100.00;95075.00;10436952;28;20607;-75
2023/04/01 15:10:37;;;;;;;0.60;0.60;;;;;;;9.21;100.00;95064.13;10436326;28;20655;-75
2023/04/01 15:16:11;;;;;;;0.60;0.60;;;;;;;9.06;100.00;95085.88;10444846;28;20220;-76
2023/04/01 15:21:50;;;;;;;1.20;1.00;;;;;;;8.80;100.00;95080.44;10433823;28;20271;-76
2023/04/01 15:27:56;;;;;;;0.70;0.70;;;;;;;8.96;100.00;95097.66;10429897;28;20184;-76
2023/04/01 15:33:24;;;;;;;0.80;0.80;;;;;;;9.13;100.00;95092.97;10314209;28;20190;-77
2023/04/01 15:38:54;;;;;;;;;;;;;;;;;;;;;
2023/04/01 15:43:59;;;;;;;2.53;1.00;;;;;;;9.12;100.00;95102.63;10450671;28;20220;-76
2023/04/01 15:49:11;;;;;;;1.07;0.90;;;;;;;8.97;100.00;95094.03;10450025;28;20888;-76
2023/04/01 15:54:26;;;;;;;0.90;0.90;;;;;;;9.06;100.00;95103.38;10433283;28;20253;-76
2023/04/01 15:59:57;;;;;;;1.83;1.70;;;;;;;9.35;100.00;95107.66;10448947;28;20218;-76
2023/04/01 16:05:33;;;;;;;4.50;1.23;;;;;;;9.04;100.00;95116.63;10450027;28;20271;-76
2023/04/01 16:10:34;;;;;;;2.20;1.57;;;;;;;8.48;100.00;95130.28;10448135;28;20401;-76
2023/04/01 16:15:50;;;;;;;1.17;1.13;;;;;;;8.24;100.00;95125.31;10449106;28;20224;-76
2023/04/01 16:20:57;;;;;;;1.40;1.30;;;;;;;8.34;100.00;95136.28;10430801;28;20191;-76
2023/04/01 16:26:15;;;;;;;1.73;1.17;;;;;;;8.71;100.00;95145.00;10447615;28;20550;-75
2023/04/01 16:31:35;;;;;;;1.77;1.43;;;;;;;8.96;100.00;95150.72;10424933;28;20729;-76
2023/04/01 16:36:42;;;;;;;1.07;0.93;;;;;;;9.17;100.00;95149.88;10406200;28;20243;-76
2023/04/01 16:42:13;;;;;;;1.27;1.17;;;;;;;9.34;100.00;95157.50;10422331;28;20234;-74
2023/04/01 16:47:17;;;;;;;2.33;1.40;;;;;;;9.31;100.00;95157.88;10422181;28;20203;-75
2023/04/01 16:52:35;;;;;;;3.00;2.80;;;;;;;9.12;100.00;95162.72;10422337;28;20203;-75
2023/04/01 16:57:46;;;;;;;1.63;1.03;;;;;;;9.15;100.00;95159.72;10405395;28;20269;-75
2023/04/01 17:02:58;;;;;;;7.87;5.10;;;;;;;9.04;100.00;95174.09;10406160;28;20231;-75
2023/04/01 17:08:40;;;;;;;10.60;6.67;;;;;;;9.02;100.00;95181.31;10406545;28;20377;-76
2023/04/01 17:14:08;;;;;;;4.07;3.63;;;;;;;9.08;100.00;95188.41;10440008;28;20212;-77
2023/04/01 17:19:31;;;;;;;1.97;1.57;;;;;;;8.97;100.00;95191.47;10416837;28;20191;-76
2023/04/01 17:24:55;;;;;;;1.83;1.20;;;;;;;9.12;100.00;95188.84;10416929;28;20227;-76
2023/04/01 17:30:17;;;;;;;1.20;1.10;;;;;;;9.04;100.00;95188.97;10413789;28;20195;-76
2023/04/01 17:36:03;;;;;;;2.23;1.77;;;;;;;8.84;100.00;95210.44;10404774;28;20211;-76
2023/04/01 17:41:11;;;;;;;1.50;1.40;;;;;;;8.77;100.00;95208.72;10267419;28;20230;-76
2023/04/01 17:46:27;;;;;;;5.47;1.60;;;;;;;8.70;100.00;95214.69;10391274;28;20365;-75
2023/04/01 17:51:48;;;;;;;5.00;2.87;;;;;;;8.50;100.00;95227.47;10434867;28;20727;-76
2023/04/01 17:57:26;;;;;;;4.13;2.87;;;;;;;8.45;100.00;95234.22;10450884;28;20254;-75
2023/04/01 18:02:53;;;;;;;2.07;1.80;;;;;;;8.29;100.00;95241.19;10452169;28;20202;-76
2023/04/01 18:08:16;;;;;;;6.20;2.00;;;;;;;8.27;100.00;95247.56;10447601;28;20227;-76
2023/04/01 18:13:37;;;;;;;3.30;2.50;;;;;;;8.10;100.00;95252.97;10446672;28;20215;-76
2023/04/01 18:18:55;;;;;;;5.87;4.10;;;;;;;8.15;100.00;95263.66;10445268;28;20290;-76
2023/04/01 18:24:02;;;;;;;19.00;12.77;;;;;;;8.28;100.00;95263.06;10446932;28;20184;-75
2023/04/01 18:29:33;;;;;;;4.00;3.33;;;;;;;8.11;100.00;95269.41;10449641;28;20279;-75
2023/04/01 18:34:54;;;;;;;5.53;1.80;;;;;;;8.05;100.00;95283.97;10444779;28;20216;-75
2023/04/01 18:40:11;;;;;;;1.30;1.20;;;;;;;8.04;100.00;95285.78;10423330;28;20268;-75
2023/04/01 18:45:28;;;;;;;5.17;3.00;;;;;;;7.97;100.00;95292.66;10432670;28;20538;-75
2023/04/01 18:50:37;;;;;;;9.07;4.03;;;;;;;8.06;100.00;95297.84;10439280;28;20210;-76
2023/04/01 18:55:47;;;;;;;13.07;7.10;;;;;;;7.95;100.00;95297.25;10390778;28;20208;-76
2023/04/01 19:01:12;;;;;;;11.23;6.50;;;;;;;7.85;100.00;95314.94;10392740;28;20197;-76
2023/04/01 19:06:19;;;;;;;11.47;7.47;;;;;;;7.75;100.00;95323.00;10393623;28;20586;-77
2023/04/01 19:11:33;;;;;;;10.17;6.43;;;;;;;7.66;100.00;95335.25;10391727;28;20250;-76
2023/04/01 19:16:44;;;;;;;5.63;4.23;;;;;;;7.79;100.00;95339.88;10393252;28;20216;-76
2023/04/01 19:21:53;;;;;;;6.57;3.97;;;;;;;7.80;100.00;95344.13;10391738;28;20255;-76
2023/04/01 19:27:06;;;;;;;2.00;1.90;;;;;;;7.81;100.00;95342.31;10392343;28;20189;-76
2023/04/01 19:32:17;;;;;;;4.27;2.47;;;;;;;7.80;100.00;95345.94;10409841;28;20196;-77
2023/04/01 19:37:39;;;;;;;4.07;2.30;;;;;;;7.68;100.00;95356.72;10427160;28;20663;-76
2023/04/01 19:43:17;;;;;;;4.00;2.57;;;;;;;7.63;100.00;95361.66;10428256;28;20236;-78
2023/04/01 19:48:45;;;;;;;1.90;1.30;;;;;;;7.50;100.00;95377.03;10426613;28;20223;-79
2023/04/01 19:53:55;;;;;;;2.47;2.00;;;;;;;7.45;100.00;95380.16;10424967;28;20319;-78
2023/04/01 19:59:03;;;;;;;5.13;2.93;;;;;;;7.42;100.00;95384.91;10428798;28;20207;-79
2023/04/01 20:04:09;;;;;;;3.57;1.53;;;;;;;7.09;100.00;95392.81;10450912;28;20210;-79
2023/04/01 20:09:28;;;;;;;2.43;2.00;;;;;;;7.19;100.00;95409.06;10420999;28;20197;-78
2023/04/01 20:14:40;;;;;;;4.17;2.27;;;;;;;7.09;100.00;95421.47;10424174;28;20374;-80
2023/04/01 20:19:44;;;;;;;3.07;2.60;;;;;;;7.09;100.00;95430.09;10417137;28;20557;-79
2023/04/01 20:24:46;;;;;;;2.53;2.07;;;;;;;6.98;100.00;95438.25;10391949;28;20767;-78
2023/04/01 20:30:00;;;;;;;2.57;2.37;;;;;;;7.18;100.00;95456.13;10409570;28;20661;-79
2023/04/01 20:35:22;;;;;;;4.03;2.20;;;;;;;7.30;100.00;95455.63;10375443;28;20216;-80
2023/04/01 20:40:31;;;;;;;2.10;1.90;;;;;;;7.29;100.00;95453.19;10391311;28;20236;-79
2023/04/01 20:45:50;;;;;;;2.70;2.10;;;;;;;6.97;100.00;95450.47;10392157;28;20667;-80
2023/04/01 20:50:53;;;;;;;2.63;2.10;;;;;;;7.00;100.00;95464.94;10407781;28;20727;-80
2023/04/01 20:56:06;;;;;;;5.60;3.07;;;;;;;6.92;100.00;95472.75;10391045;28;20223;-79
2023/04/01 21:01:20;;;;;;;3.37;2.93;;;;;;;7.06;100.00;95474.69;10408863;28;20184;-80
2023/04/01 21:06:31;;;;;;;4.33;2.60;;;;;;;6.91;100.00;95477.16;10390459;28;20196;-80
2023/04/01 21:11:42;;;;;;;4.33;2.30;;;;;;;6.97;100.00;95492.13;10408113;28;20196;-80
2023/04/01 21:17:13;;;;;;;4.87;2.27;;;;;;;7.00;100.00;95487.56;10390746;28;20212;-80
2023/04/01 21:22:26;;;;;;;3.20;1.97;;;;;;;7.01;100.00;95490.00;10416028;28;20612;-79
2023/04/01 21:28:04;;;;;;;2.83;2.07;;;;;;;6.99;100.00;95502.38;10416624;28;20203;-80
2023/04/01 21:33:19;;;;;;;2.60;1.63;;;;;;;7.03;100.00;95502.84;10415930;28;20195;-80
2023/04/01 21:38:47;;;;;;;2.00;1.73;;;;;;;6.95;100.00;95507.09;10398316;28;20279;-81
2023/04/01 21:44:07;;;;;;;1.97;1.30;;;;;;;6.84;100.00;95523.03;10416273;28;20228;-79
2023/04/01 21:49:32;;;;;;;1.90;1.60;;;;;;;6.74;100.00;95522.41;10415240;28;20192;-79
2023/04/01 21:54:41;;;;;;;3.93;1.60;;;;;;;6.97;100.00;95530.38;10415728;28;20761;-79
2023/04/01 22:00:12;;;;;;;4.83;1.40;;;;;;;6.94;100.00;95530.69;10415376;28;20200;-79
2023/04/01 22:05:18;;;;;;;3.37;1.30;;;;;;;6.77;100.00;95532.47;10414401;28;20280;-80
2023/04/01 22:10:49;;;;;;;2.37;1.50;;;;;;;6.72;100.00;95538.19;10394011;28;20217;-80
2023/04/01 22:16:01;;;;;;;3.50;1.53;;;;;;;6.91;100.00;95546.66;10380410;28;20315;-79
2023/04/01 22:21:09;;;;;;;2.40;2.20;;;;;;;6.93;100.00;95544.69;10414094;28;20354;-80
2023/04/01 22:26:26;;;;;;;1.73;1.53;;;;;;;6.89;100.00;95543.38;10396617;28;20188;-80
2023/04/01 22:31:29;;;;;;;1.77;1.30;;;;;;;6.95;100.00;95547.94;10412821;28;20253;-79
2023/04/01 22:36:57;;;;;;;4.13;1.30;;;;;;;6.88;100.00;95552.19;10396409;28;20369;-81
2023/04/01 22:42:24;;;;;;;3.37;1.47;;;;;;;6.70;100.00;95547.09;10395973;28;20221;-80
2023/04/01 22:47:33;;;;;;;3.40;1.60;;;;;;;6.72;100.00;95558.16;10395705;28;20201;-80
2023/04/01 22:52:42;;;;;;;4.97;1.93;;;;;;;6.74;100.00;95564.84;10395596;28;20203;-80
2023/04/01 22:57:57;;;;;;;3.80;1.60;;;;;;;6.61;100.00;95574.91;10395361;28;20233;-80
2023/04/01 23:03:15;;;;;;;3.47;1.80;;;;;;;6.53;100.00;95580.91;10395535;28;20192;-79
2023/04/01 23:08:41;;;;;;;4.13;2.20;;;;;;;6.50;100.00;95591.63;10395650;28;20656;-80
2023/04/01 23:13:48;;;;;;;4.93;1.70;;;;;;;6.81;100.00;95595.44;10404527;28;20220;-78
2023/04/01 23:18:56;;;;;;;2.20;1.50;;;;;;;6.67;100.00;95596.88;10426037;28;20215;-79
2023/04/01 23:24:02;;;;;;;2.10;1.90;;;;;;;6.59;100.00;95605.47;10452661;28;20275;-79
2023/04/01 23:29:04;;;;;;;5.30;3.40;;;;;;;6.57;100.00;95612.63;10453905;28;20563;-79
2023/04/01 23:34:13;;;;;;;4.10;3.73;;;;;;;6.58;100.00;95629.88;10453582;28;20219;-78
2023/04/01 23:39:26;;;;;;;6.67;5.30;;;;;;;6.65;100.00;95632.66;10452892;28;20231;-79
2023/04/01 23:44:28;;;;;;;12.33;9.50;;;;;;;6.69;100.00;95639.16;10452655;28;20228;-78
2023/04/01 23:49:53;;;;;;;8.77;6.53;;;;;;;6.61;100.00;95652.97;10451754;28;20241;-79
2023/04/01 23:55:16;;;;;;;3.00;2.63;;;;;;;6.36;100.00;95670.28;10415458;28;20223;-79
